createdAt,value
2018-08-25T00:00:55.504Z,15.37
2018-08-25T00:01:55.498Z,15.02
2018-08-25T00:02:55.518Z,15.00
2018-08-25T00:03:55.537Z,14.72
2018-08-25T00:04:55.559Z,14.69
2018-08-25T00:05:55.671Z,14.70
2018-08-25T00:06:55.683Z,14.65
2018-08-25T00:07:55.690Z,14.54
2018-08-25T00:08:55.632Z,14.59
2018-08-25T00:09:55.658Z,14.54
2018-08-25T00:10:55.671Z,14.58
2018-08-25T00:11:55.688Z,14.50
2018-08-25T00:12:55.709Z,14.43
2018-08-25T00:13:55.725Z,14.54
2018-08-25T00:14:55.744Z,14.40
2018-08-25T00:15:55.761Z,14.41
2018-08-25T00:16:55.781Z,14.43
2018-08-25T00:17:55.799Z,14.47
2018-08-25T00:18:55.816Z,14.59
2018-08-25T00:19:55.841Z,14.72
2018-08-25T00:20:55.873Z,14.85
2018-08-25T00:21:55.877Z,15.06
2018-08-25T00:22:55.894Z,15.15
2018-08-25T00:23:55.913Z,15.18
2018-08-25T00:24:55.930Z,15.24
2018-08-25T00:25:55.952Z,15.24
2018-08-25T00:26:55.968Z,15.21
2018-08-25T00:27:55.989Z,15.36
2018-08-25T00:28:56.007Z,15.37
2018-08-25T00:29:56.025Z,15.15
2018-08-25T00:30:56.043Z,15.11
2018-08-25T00:31:56.061Z,15.29
2018-08-25T00:32:56.158Z,15.33
2018-08-25T00:33:56.099Z,15.36
2018-08-25T00:34:56.120Z,15.49
2018-08-25T00:35:56.140Z,15.55
2018-08-25T00:36:56.162Z,15.44
2018-08-25T00:37:56.174Z,15.43
2018-08-25T00:38:56.193Z,15.33
2018-08-25T00:39:56.211Z,15.15
2018-08-25T00:40:56.229Z,14.86
2018-08-25T00:41:56.253Z,15.00
2018-08-25T00:42:56.270Z,15.15
2018-08-25T00:43:56.289Z,15.24
2018-08-25T00:44:56.309Z,15.21
2018-08-25T00:45:56.325Z,15.29
2018-08-25T00:46:56.344Z,15.24
2018-08-25T00:47:56.414Z,15.15
2018-08-25T00:48:56.402Z,15.25
2018-08-25T00:49:56.400Z,15.22
2018-08-25T00:50:56.416Z,15.00
2018-08-25T00:51:56.437Z,15.11
2018-08-25T00:52:56.456Z,15.10
2018-08-25T00:53:56.483Z,15.11
2018-08-25T00:54:56.493Z,15.25
2018-08-25T00:55:56.512Z,15.24
2018-08-25T00:56:56.530Z,15.36
2018-08-25T00:57:56.549Z,15.51
2018-08-25T00:58:56.571Z,15.42
2018-08-25T00:59:56.589Z,15.28
2018-08-25T01:00:56.607Z,15.11
2018-08-25T01:01:56.625Z,15.29
2018-08-25T01:02:56.641Z,15.49
2018-08-25T01:03:56.664Z,15.31
2018-08-25T01:04:56.696Z,15.29
2018-08-25T01:05:56.718Z,15.29
2018-08-25T01:06:56.720Z,15.44
2018-08-25T01:07:56.735Z,15.42
2018-08-25T01:08:56.754Z,15.06
2018-08-25T01:09:56.781Z,14.72
2018-08-25T01:10:56.797Z,14.66
2018-08-25T01:11:56.812Z,14.77
2018-08-25T01:12:56.829Z,15.03
2018-08-25T01:13:56.848Z,14.92
2018-08-25T01:14:56.873Z,15.00
2018-08-25T01:15:56.886Z,15.14
2018-08-25T01:16:56.908Z,15.17
2018-08-25T01:17:56.924Z,15.07
2018-08-25T01:18:56.955Z,14.77
2018-08-25T01:19:56.963Z,14.96
2018-08-25T01:20:56.979Z,14.88
2018-08-25T01:21:56.998Z,14.88
2018-08-25T01:22:57.024Z,14.73
2018-08-25T01:23:57.038Z,14.88
2018-08-25T01:24:57.055Z,14.86
2018-08-25T01:25:57.077Z,14.81
2018-08-25T01:26:57.091Z,14.48
2018-08-25T01:27:57.108Z,14.63
2018-08-25T01:28:57.136Z,14.59
2018-08-25T01:29:57.151Z,14.60
2018-08-25T01:30:57.166Z,14.54
2018-08-25T01:31:57.183Z,14.59
2018-08-25T01:32:57.206Z,14.58
2018-08-25T01:33:57.222Z,14.54
2018-08-25T01:34:57.244Z,14.36
2018-08-25T01:35:57.260Z,14.29
2018-08-25T01:36:57.282Z,14.32
2018-08-25T01:37:57.301Z,14.18
2018-08-25T01:38:57.315Z,14.20
2018-08-25T01:39:57.338Z,14.22
2018-08-25T01:40:57.356Z,14.17
2018-08-25T01:41:57.372Z,14.04
2018-08-25T01:42:57.388Z,14.22
2018-08-25T01:43:57.410Z,14.35
2018-08-25T01:44:57.427Z,14.23
2018-08-25T01:45:57.449Z,14.53
2018-08-25T01:46:57.465Z,14.68
2018-08-25T01:47:57.485Z,14.72
2018-08-25T01:48:57.503Z,14.86
2018-08-25T01:49:57.523Z,14.94
2018-08-25T01:50:57.539Z,14.91
2018-08-25T01:51:57.559Z,15.02
2018-08-25T01:52:57.575Z,14.92
2018-08-25T01:53:57.596Z,14.86
2018-08-25T01:54:57.615Z,15.07
2018-08-25T01:55:57.632Z,15.11
2018-08-25T01:56:57.657Z,15.11
2018-08-25T01:57:57.671Z,15.17
2018-08-25T01:58:57.694Z,15.06
2018-08-25T01:59:57.708Z,15.09
2018-08-25T02:00:57.731Z,15.10
2018-08-25T02:01:57.745Z,14.78
2018-08-25T02:02:57.767Z,14.63
2018-08-25T02:03:57.781Z,14.97
2018-08-25T02:04:57.801Z,14.96
2018-08-25T02:05:57.819Z,14.88
2018-08-25T02:06:57.840Z,14.63
2018-08-25T02:07:57.855Z,14.69
2018-08-25T02:08:57.875Z,14.91
2018-08-25T02:09:57.891Z,15.06
2018-08-25T02:10:57.915Z,15.14
2018-08-25T02:11:57.934Z,15.19
2018-08-25T02:12:57.953Z,14.97
2018-08-25T02:13:57.968Z,14.96
2018-08-25T02:14:57.988Z,15.11
2018-08-25T02:15:58.008Z,15.14
2018-08-25T02:16:58.024Z,15.22
2018-08-25T02:17:58.044Z,15.35
2018-08-25T02:18:58.067Z,15.47
2018-08-25T02:19:58.087Z,15.43
2018-08-25T02:20:58.104Z,15.40
2018-08-25T02:21:58.116Z,15.31
2018-08-25T02:22:58.169Z,15.14
2018-08-25T02:23:58.156Z,15.24
2018-08-25T02:24:58.174Z,15.19
2018-08-25T02:25:58.194Z,15.39
2018-08-25T02:26:58.215Z,15.31
2018-08-25T02:27:58.231Z,15.31
2018-08-25T02:28:58.256Z,15.44
2018-08-25T02:29:58.275Z,15.54
2018-08-25T02:30:58.287Z,15.73
2018-08-25T02:31:58.315Z,15.42
2018-08-25T02:32:58.324Z,15.59
2018-08-25T02:33:58.344Z,15.58
2018-08-25T02:34:58.364Z,15.61
2018-08-25T02:35:58.382Z,15.67
2018-08-25T02:36:58.423Z,15.55
2018-08-25T02:37:58.417Z,15.44
2018-08-25T02:38:58.441Z,15.64
2018-08-25T02:39:58.462Z,15.54
2018-08-25T02:40:58.476Z,15.49
2018-08-25T02:41:58.493Z,15.57
2018-08-25T02:42:58.512Z,15.62
2018-08-25T02:43:58.530Z,15.19
2018-08-25T02:44:58.550Z,15.24
2018-08-25T02:45:58.573Z,15.40
2018-08-25T02:46:58.587Z,15.25
2018-08-25T02:47:58.605Z,15.39
2018-08-25T02:48:58.624Z,15.49
2018-08-25T02:49:58.645Z,15.42
2018-08-25T02:50:58.661Z,15.22
2018-08-25T02:51:58.682Z,15.28
2018-08-25T02:52:58.715Z,15.14
2018-08-25T02:53:58.724Z,15.14
2018-08-25T02:54:58.737Z,15.19
2018-08-25T02:55:58.755Z,15.31
2018-08-25T02:56:58.776Z,15.25
2018-08-25T02:57:58.791Z,15.42
2018-08-25T02:58:58.812Z,15.04
2018-08-25T02:59:58.831Z,15.14
2018-08-25T03:00:58.849Z,15.33
2018-08-25T03:01:58.868Z,15.40
2018-08-25T03:02:58.886Z,15.42
2018-08-25T03:03:58.908Z,15.39
2018-08-25T03:04:58.930Z,15.18
2018-08-25T03:05:58.942Z,15.37
2018-08-25T03:06:58.960Z,15.37
2018-08-25T03:07:58.984Z,15.22
2018-08-25T03:08:59.001Z,15.33
2018-08-25T03:09:59.017Z,15.47
2018-08-25T03:10:59.035Z,15.55
2018-08-25T03:11:59.054Z,15.47
2018-08-25T03:12:59.074Z,15.51
2018-08-25T03:13:59.092Z,15.49
2018-08-25T03:14:59.131Z,15.24
2018-08-25T03:15:59.169Z,15.52
2018-08-25T03:16:59.148Z,15.55
2018-08-25T03:17:59.169Z,15.44
2018-08-25T03:18:59.184Z,15.17
2018-08-25T03:19:59.205Z,15.27
2018-08-25T03:20:59.224Z,15.19
2018-08-25T03:21:59.246Z,15.42
2018-08-25T03:22:59.270Z,15.21
2018-08-25T03:23:59.281Z,15.10
2018-08-25T03:24:59.298Z,15.09
2018-08-25T03:25:59.320Z,15.21
2018-08-25T03:26:59.335Z,15.19
2018-08-25T03:27:59.353Z,15.39
2018-08-25T03:28:59.376Z,15.36
2018-08-25T03:29:59.390Z,15.49
2018-08-25T03:30:59.416Z,15.65
2018-08-25T03:31:59.431Z,15.62
2018-08-25T03:32:59.450Z,15.36
2018-08-25T03:33:59.472Z,15.33
2018-08-25T03:34:59.486Z,15.19
2018-08-25T03:35:59.506Z,15.15
2018-08-25T03:36:59.526Z,14.99
2018-08-25T03:37:59.540Z,14.92
2018-08-25T03:38:59.562Z,15.02
2018-08-25T03:39:59.584Z,14.97
2018-08-25T03:40:59.599Z,15.04
2018-08-25T03:41:59.614Z,15.18
2018-08-25T03:42:59.638Z,15.19
2018-08-25T03:43:59.660Z,15.44
2018-08-25T03:44:59.678Z,15.62
2018-08-25T03:45:59.693Z,15.49
2018-08-25T03:46:59.713Z,15.42
2018-08-25T03:47:59.729Z,15.24
2018-08-25T03:48:59.747Z,15.51
2018-08-25T03:49:59.766Z,15.62
2018-08-25T03:50:59.783Z,15.61
2018-08-25T03:51:59.805Z,15.44
2018-08-25T03:52:59.824Z,15.44
2018-08-25T03:53:59.843Z,15.39
2018-08-25T03:54:59.862Z,15.43
2018-08-25T03:55:59.878Z,15.59
2018-08-25T03:56:59.898Z,15.54
2018-08-25T03:57:59.915Z,15.65
2018-08-25T03:58:59.941Z,15.67
2018-08-25T03:59:59.961Z,15.86
2018-08-25T04:00:59.976Z,15.83
2018-08-25T04:01:59.994Z,15.55
2018-08-25T04:03:00.011Z,15.82
2018-08-25T04:04:00.030Z,15.80
2018-08-25T04:05:00.054Z,15.70
2018-08-25T04:06:00.067Z,15.80
2018-08-25T04:07:00.090Z,15.86
2018-08-25T04:08:00.109Z,15.98
2018-08-25T04:09:00.125Z,15.90
2018-08-25T04:10:00.142Z,16.05
2018-08-25T04:11:00.161Z,16.15
2018-08-25T04:12:00.180Z,16.31
2018-08-25T04:13:00.201Z,16.15
2018-08-25T04:14:00.220Z,16.24
2018-08-25T04:15:00.290Z,16.12
2018-08-25T04:16:00.254Z,16.24
2018-08-25T04:17:00.280Z,16.21
2018-08-25T04:18:00.293Z,16.12
2018-08-25T04:19:00.317Z,16.00
2018-08-25T04:20:00.329Z,16.09
2018-08-25T04:21:00.350Z,16.21
2018-08-25T04:22:00.372Z,16.21
2018-08-25T04:23:00.391Z,16.20
2018-08-25T04:24:00.407Z,16.47
2018-08-25T04:25:00.424Z,16.58
2018-08-25T04:26:00.445Z,16.72
2018-08-25T04:27:00.466Z,16.69
2018-08-25T04:28:00.483Z,16.68
2018-08-25T04:29:00.505Z,16.74
2018-08-25T04:30:00.520Z,16.71
2018-08-25T04:31:00.539Z,16.72
2018-08-25T04:32:00.557Z,16.84
2018-08-25T04:33:00.577Z,16.83
2018-08-25T04:34:00.596Z,16.79
2018-08-25T04:35:00.617Z,16.64
2018-08-25T04:36:00.634Z,16.42
2018-08-25T04:37:00.658Z,16.38
2018-08-25T04:38:00.713Z,16.56
2018-08-25T04:39:00.691Z,16.64
2018-08-25T04:40:00.712Z,16.58
2018-08-25T04:41:00.732Z,16.68
2018-08-25T04:42:00.746Z,16.65
2018-08-25T04:43:00.765Z,16.68
2018-08-25T04:44:00.788Z,16.72
2018-08-25T04:45:00.812Z,16.78
2018-08-25T04:46:00.825Z,16.79
2018-08-25T04:47:00.845Z,16.83
2018-08-25T04:48:00.898Z,16.43
2018-08-25T04:49:00.883Z,16.24
2018-08-25T04:50:00.900Z,16.42
2018-08-25T04:51:00.918Z,16.66
2018-08-25T04:52:00.938Z,16.68
2018-08-25T04:53:00.956Z,16.35
2018-08-25T04:54:01.018Z,16.61
2018-08-25T04:55:01.020Z,16.66
2018-08-25T04:56:01.014Z,16.66
2018-08-25T04:57:01.031Z,16.17
2018-08-25T04:58:01.052Z,16.31
2018-08-25T04:59:01.070Z,16.31
2018-08-25T05:00:01.102Z,16.60
2018-08-25T05:01:01.115Z,16.60
2018-08-25T05:02:01.277Z,16.57
2018-08-25T05:03:01.145Z,16.61
2018-08-25T05:04:01.170Z,16.78
2018-08-25T05:05:01.187Z,16.64
2018-08-25T05:06:01.202Z,16.89
2018-08-25T05:07:01.222Z,16.65
2018-08-25T05:08:01.246Z,16.54
2018-08-25T05:09:01.261Z,16.74
2018-08-25T05:10:01.279Z,16.78
2018-08-25T05:11:01.299Z,17.01
2018-08-25T05:12:01.321Z,17.12
2018-08-25T05:13:01.336Z,16.97
2018-08-25T05:14:01.354Z,17.02
2018-08-25T05:15:01.374Z,17.14
2018-08-25T05:16:01.394Z,17.08
2018-08-25T05:17:01.414Z,17.16
2018-08-25T05:18:01.576Z,17.27
2018-08-25T05:19:01.453Z,17.16
2018-08-25T05:20:01.472Z,16.96
2018-08-25T05:21:01.496Z,17.09
2018-08-25T05:22:01.523Z,17.08
2018-08-25T05:23:01.538Z,17.14
2018-08-25T05:24:01.558Z,17.04
2018-08-25T05:25:01.570Z,16.87
2018-08-25T05:26:01.616Z,16.51
2018-08-25T05:27:01.605Z,16.54
2018-08-25T05:28:01.681Z,16.69
2018-08-25T05:29:01.650Z,16.99
2018-08-25T05:30:01.667Z,16.83
2018-08-25T05:31:01.688Z,16.96
2018-08-25T05:32:01.704Z,17.05
2018-08-25T05:33:01.720Z,16.87
2018-08-25T05:34:01.739Z,17.04
2018-08-25T05:35:01.762Z,17.14
2018-08-25T05:36:01.785Z,16.99
2018-08-25T05:37:01.797Z,16.84
2018-08-25T05:38:01.819Z,17.14
2018-08-25T05:39:01.861Z,17.19
2018-08-25T05:40:01.861Z,17.20
2018-08-25T05:41:01.873Z,17.26
2018-08-25T05:42:01.897Z,17.39
2018-08-25T05:43:01.913Z,17.30
2018-08-25T05:44:01.959Z,17.12
2018-08-25T05:45:01.951Z,16.79
2018-08-25T05:46:01.968Z,16.87
2018-08-25T05:47:01.992Z,16.81
2018-08-25T05:48:02.011Z,16.99
2018-08-25T05:49:02.028Z,17.33
2018-08-25T05:50:02.058Z,17.36
2018-08-25T05:51:02.070Z,17.36
2018-08-25T05:52:02.088Z,17.39
2018-08-25T05:53:02.110Z,17.49
2018-08-25T05:54:02.132Z,17.41
2018-08-25T05:55:02.149Z,17.36
2018-08-25T05:56:02.161Z,17.34
2018-08-25T05:57:02.182Z,17.30
2018-08-25T05:58:02.205Z,17.06
2018-08-25T05:59:02.221Z,17.39
2018-08-25T06:00:02.238Z,17.34
2018-08-25T06:01:02.257Z,17.33
2018-08-25T06:02:02.275Z,17.26
2018-08-25T06:03:02.296Z,17.31
2018-08-25T06:04:02.316Z,17.11
2018-08-25T06:05:02.335Z,17.30
2018-08-25T06:06:02.355Z,17.27
2018-08-25T06:07:02.372Z,17.24
2018-08-25T06:08:02.392Z,17.34
2018-08-25T06:09:02.410Z,16.90
2018-08-25T06:10:02.431Z,16.84
2018-08-25T06:11:02.454Z,16.76
2018-08-25T06:12:02.477Z,16.60
2018-08-25T06:13:02.487Z,16.83
2018-08-25T06:14:02.507Z,16.75
2018-08-25T06:15:02.528Z,16.74
2018-08-25T06:16:02.550Z,16.74
2018-08-25T06:17:02.568Z,16.64
2018-08-25T06:18:02.582Z,16.86
2018-08-25T06:19:02.646Z,16.84
2018-08-25T06:20:02.626Z,16.83
2018-08-25T06:21:02.641Z,16.94
2018-08-25T06:22:02.667Z,16.91
2018-08-25T06:23:02.686Z,16.78
2018-08-25T06:24:02.701Z,17.02
2018-08-25T06:25:02.720Z,16.89
2018-08-25T06:26:02.736Z,17.01
2018-08-25T06:27:02.763Z,16.83
2018-08-25T06:28:02.777Z,16.81
2018-08-25T06:29:02.796Z,17.02
2018-08-25T06:30:02.849Z,16.65
2018-08-25T06:31:02.833Z,16.64
2018-08-25T06:32:02.851Z,16.84
2018-08-25T06:33:02.876Z,16.75
2018-08-25T06:34:02.892Z,16.74
2018-08-25T06:35:02.910Z,17.02
2018-08-25T06:36:02.976Z,17.24
2018-08-25T06:37:02.950Z,17.15
2018-08-25T06:38:02.971Z,16.97
2018-08-25T06:39:02.996Z,17.02
2018-08-25T06:40:03.010Z,17.11
2018-08-25T06:41:03.024Z,17.36
2018-08-25T06:42:03.045Z,17.23
2018-08-25T06:43:03.066Z,17.24
2018-08-25T06:44:03.082Z,17.33
2018-08-25T06:45:03.106Z,17.36
2018-08-25T06:46:03.120Z,17.39
2018-08-25T06:47:03.139Z,17.44
2018-08-25T06:48:03.164Z,17.14
2018-08-25T06:49:03.181Z,17.04
2018-08-25T06:50:03.203Z,17.11
2018-08-25T06:51:03.219Z,17.11
2018-08-25T06:52:03.239Z,17.15
2018-08-25T06:53:03.260Z,17.29
2018-08-25T06:54:03.277Z,17.15
2018-08-25T06:55:03.297Z,17.41
2018-08-25T06:56:03.317Z,17.26
2018-08-25T06:57:03.336Z,17.29
2018-08-25T06:58:03.354Z,17.48
2018-08-25T06:59:03.379Z,17.51
2018-08-25T07:00:03.394Z,17.78
2018-08-25T07:01:03.414Z,17.64
2018-08-25T07:02:03.435Z,17.63
2018-08-25T07:03:03.450Z,17.42
2018-08-25T07:04:03.473Z,17.31
2018-08-25T07:05:03.491Z,16.76
2018-08-25T07:06:03.517Z,16.93
2018-08-25T07:07:03.532Z,16.96
2018-08-25T07:08:03.550Z,17.29
2018-08-25T07:09:03.644Z,17.26
2018-08-25T07:10:03.590Z,17.31
2018-08-25T07:11:03.606Z,17.38
2018-08-25T07:12:03.634Z,17.38
2018-08-25T07:13:03.646Z,17.20
2018-08-25T07:14:03.669Z,17.34
2018-08-25T07:15:03.687Z,17.23
2018-08-25T07:16:03.709Z,17.44
2018-08-25T07:17:03.728Z,17.23
2018-08-25T07:18:03.748Z,17.24
2018-08-25T07:19:03.778Z,17.22
2018-08-25T07:20:03.784Z,17.15
2018-08-25T07:21:03.812Z,17.11
2018-08-25T07:22:03.826Z,17.14
2018-08-25T07:23:03.839Z,17.16
2018-08-25T07:24:03.865Z,17.11
2018-08-25T07:25:03.907Z,17.30
2018-08-25T07:26:03.965Z,17.45
2018-08-25T07:27:03.919Z,17.26
2018-08-25T07:28:03.938Z,17.41
2018-08-25T07:29:03.958Z,17.42
2018-08-25T07:30:03.980Z,17.67
2018-08-25T07:31:03.997Z,17.23
2018-08-25T07:32:04.048Z,17.19
2018-08-25T07:33:04.052Z,17.16
2018-08-25T07:34:04.060Z,16.99
2018-08-25T07:35:04.078Z,17.14
2018-08-25T07:36:04.098Z,17.29
2018-08-25T07:37:04.120Z,17.27
2018-08-25T07:38:04.133Z,17.31
2018-08-25T07:39:04.152Z,17.34
2018-08-25T07:40:04.173Z,16.60
2018-08-25T07:41:04.195Z,16.69
2018-08-25T07:42:04.214Z,16.84
2018-08-25T07:43:04.233Z,17.12
2018-08-25T07:44:04.253Z,16.84
2018-08-25T07:45:04.319Z,16.87
2018-08-25T07:46:04.290Z,16.90
2018-08-25T07:47:04.310Z,17.24
2018-08-25T07:48:04.330Z,17.12
2018-08-25T07:49:04.347Z,17.15
2018-08-25T07:50:04.371Z,17.20
2018-08-25T07:51:04.423Z,17.23
2018-08-25T07:52:04.408Z,17.12
2018-08-25T07:53:04.429Z,17.30
2018-08-25T07:54:04.476Z,17.26
2018-08-25T07:55:04.467Z,17.24
2018-08-25T07:56:04.485Z,17.16
2018-08-25T07:57:04.507Z,17.34
2018-08-25T07:58:04.524Z,17.67
2018-08-25T07:59:04.564Z,17.65
2018-08-25T08:00:04.568Z,17.95
2018-08-25T08:01:04.582Z,18.08
2018-08-25T08:02:04.602Z,18.04
2018-08-25T08:03:04.621Z,18.05
2018-08-25T08:04:04.645Z,18.07
2018-08-25T08:05:04.663Z,17.98
2018-08-25T08:06:04.683Z,18.29
2018-08-25T08:07:04.704Z,18.19
2018-08-25T08:08:04.720Z,18.29
2018-08-25T08:09:04.741Z,18.43
2018-08-25T08:10:04.763Z,18.50
2018-08-25T08:11:04.786Z,18.49
2018-08-25T08:12:04.831Z,18.78
2018-08-25T08:13:04.820Z,18.88
2018-08-25T08:14:04.843Z,18.59
2018-08-25T08:15:04.864Z,18.70
2018-08-25T08:16:04.882Z,18.43
2018-08-25T08:17:04.906Z,18.23
2018-08-25T08:18:04.921Z,18.16
2018-08-25T08:19:04.942Z,18.34
2018-08-25T08:20:04.964Z,18.55
2018-08-25T08:21:04.985Z,18.73
2018-08-25T08:22:05.020Z,18.90
2018-08-25T08:23:05.026Z,18.83
2018-08-25T08:24:05.047Z,18.68
2018-08-25T08:25:05.065Z,18.62
2018-08-25T08:26:05.237Z,18.86
2018-08-25T08:27:05.106Z,18.59
2018-08-25T08:28:05.126Z,18.49
2018-08-25T08:29:05.148Z,18.40
2018-08-25T08:30:05.172Z,18.08
2018-08-25T08:31:05.189Z,18.03
2018-08-25T08:32:05.206Z,18.33
2018-08-25T08:33:05.233Z,18.41
2018-08-25T08:34:05.249Z,18.07
2018-08-25T08:35:05.269Z,18.18
2018-08-25T08:36:05.289Z,18.20
2018-08-25T08:37:05.311Z,17.95
2018-08-25T08:38:05.327Z,18.01
2018-08-25T08:39:05.348Z,18.04
2018-08-25T08:40:05.373Z,18.13
2018-08-25T08:41:05.389Z,18.47
2018-08-25T08:42:05.406Z,18.77
2018-08-25T08:43:05.430Z,18.19
2018-08-25T08:44:05.453Z,18.31
2018-08-25T08:45:05.470Z,18.65
2018-08-25T08:46:05.489Z,18.92
2018-08-25T08:47:05.510Z,18.89
2018-08-25T08:48:05.532Z,18.77
2018-08-25T08:49:05.553Z,18.59
2018-08-25T08:50:05.629Z,18.63
2018-08-25T08:51:05.594Z,18.52
2018-08-25T08:52:05.608Z,18.77
2018-08-25T08:53:05.631Z,18.96
2018-08-25T08:54:05.653Z,19.47
2018-08-25T08:55:05.672Z,19.47
2018-08-25T08:56:05.691Z,19.49
2018-08-25T08:57:05.713Z,19.26
2018-08-25T08:58:05.771Z,19.30
2018-08-25T08:59:05.755Z,18.92
2018-08-25T09:00:05.774Z,18.77
2018-08-25T09:01:05.797Z,18.81
2018-08-25T09:02:05.815Z,19.29
2018-08-25T09:03:05.924Z,19.76
2018-08-25T09:04:05.857Z,19.89
2018-08-25T09:05:05.878Z,19.82
2018-08-25T09:06:05.898Z,19.48
2018-08-25T09:07:05.922Z,19.71
2018-08-25T09:08:05.940Z,19.74
2018-08-25T09:09:05.964Z,19.34
2018-08-25T09:10:05.981Z,18.95
2018-08-25T09:11:06.001Z,18.95
2018-08-25T09:12:06.045Z,19.15
2018-08-25T09:13:06.046Z,19.27
2018-08-25T09:14:06.065Z,19.08
2018-08-25T09:15:06.087Z,18.92
2018-08-25T09:16:06.108Z,18.99
2018-08-25T09:17:06.133Z,18.96
2018-08-25T09:18:06.147Z,18.75
2018-08-25T09:19:06.169Z,18.84
2018-08-25T09:20:06.187Z,19.21
2018-08-25T09:21:06.207Z,19.11
2018-08-25T09:22:06.233Z,19.18
2018-08-25T09:23:06.249Z,19.09
2018-08-25T09:24:06.271Z,18.99
2018-08-25T09:25:06.289Z,18.98
2018-08-25T09:26:06.313Z,19.09
2018-08-25T09:27:06.332Z,18.56
2018-08-25T09:28:06.354Z,18.78
2018-08-25T09:29:06.376Z,18.56
2018-08-25T09:30:06.401Z,18.88
2018-08-25T09:31:06.416Z,18.92
2018-08-25T09:32:06.436Z,18.86
2018-08-25T09:33:06.457Z,19.18
2018-08-25T09:34:06.476Z,19.26
2018-08-25T09:35:06.498Z,19.58
2018-08-25T09:36:06.589Z,19.96
2018-08-25T09:37:06.540Z,20.16
2018-08-25T09:38:06.558Z,19.86
2018-08-25T09:39:06.584Z,19.81
2018-08-25T09:40:06.602Z,19.58
2018-08-25T09:41:06.624Z,19.62
2018-08-25T09:42:06.645Z,19.81
2018-08-25T09:43:06.664Z,19.81
2018-08-25T09:44:06.684Z,19.84
2018-08-25T09:45:06.705Z,19.59
2018-08-25T09:46:06.723Z,19.82
2018-08-25T09:47:06.817Z,19.70
2018-08-25T09:48:06.769Z,19.45
2018-08-25T09:49:06.791Z,19.16
2018-08-25T09:50:06.813Z,19.47
2018-08-25T09:51:06.831Z,19.88
2018-08-25T09:52:06.853Z,19.84
2018-08-25T09:53:06.876Z,19.81
2018-08-25T09:54:06.895Z,19.99
2018-08-25T09:55:06.916Z,19.88
2018-08-25T09:56:06.936Z,19.54
2018-08-25T09:57:06.959Z,20.09
2018-08-25T09:58:06.976Z,20.28
2018-08-25T09:59:07.037Z,20.51
2018-08-25T10:00:07.023Z,20.90
2018-08-25T10:01:07.044Z,20.96
2018-08-25T10:02:07.066Z,20.81
2018-08-25T10:03:07.084Z,20.26
2018-08-25T10:04:07.106Z,20.55
2018-08-25T10:05:07.163Z,20.62
2018-08-25T10:06:07.149Z,20.37
2018-08-25T10:07:07.172Z,20.22
2018-08-25T10:08:07.192Z,20.16
2018-08-25T10:09:07.216Z,20.34
2018-08-25T10:10:07.233Z,19.64
2018-08-25T10:11:07.254Z,20.09
2018-08-25T10:12:07.277Z,20.25
2018-08-25T10:13:07.300Z,20.36
2018-08-25T10:14:07.319Z,20.37
2018-08-25T10:15:07.349Z,20.63
2018-08-25T10:16:07.367Z,20.72
2018-08-25T10:17:07.389Z,20.69
2018-08-25T10:18:07.411Z,20.99
2018-08-25T10:19:07.424Z,21.18
2018-08-25T10:20:07.449Z,20.95
2018-08-25T10:21:07.466Z,21.24
2018-08-25T10:22:07.489Z,21.46
2018-08-25T10:23:07.585Z,21.24
2018-08-25T10:24:07.536Z,21.35
2018-08-25T10:25:07.556Z,21.11
2018-08-25T10:26:07.575Z,20.96
2018-08-25T10:27:07.599Z,21.03
2018-08-25T10:28:07.619Z,20.90
2018-08-25T10:29:07.724Z,20.70
2018-08-25T10:30:07.661Z,20.47
2018-08-25T10:31:07.689Z,20.44
2018-08-25T10:32:07.706Z,20.72
2018-08-25T10:33:07.728Z,20.70
2018-08-25T10:34:07.747Z,20.69
2018-08-25T10:35:07.785Z,20.34
2018-08-25T10:36:07.789Z,19.91
2018-08-25T10:37:07.817Z,19.92
2018-08-25T10:38:07.838Z,19.77
2018-08-25T10:39:07.862Z,20.18
2018-08-25T10:40:07.878Z,19.84
2018-08-25T10:41:07.895Z,19.81
2018-08-25T10:42:08.007Z,19.71
2018-08-25T10:43:07.938Z,19.59
2018-08-25T10:44:07.963Z,19.62
2018-08-25T10:45:07.989Z,19.73
2018-08-25T10:46:07.999Z,19.48
2018-08-25T10:47:08.025Z,19.48
2018-08-25T10:48:08.102Z,19.84
2018-08-25T10:49:08.084Z,19.94
2018-08-25T10:50:08.093Z,20.14
2018-08-25T10:51:08.104Z,20.31
2018-08-25T10:52:08.128Z,20.22
2018-08-25T10:53:08.167Z,19.74
2018-08-25T10:54:08.246Z,19.88
2018-08-25T10:55:08.193Z,19.76
2018-08-25T10:56:08.216Z,19.51
2018-08-25T10:57:08.237Z,19.45
2018-08-25T10:58:08.254Z,19.66
2018-08-25T10:59:08.275Z,20.04
2018-08-25T11:00:08.387Z,20.16
2018-08-25T11:01:08.357Z,20.48
2018-08-25T11:02:08.337Z,20.70
2018-08-25T11:03:08.357Z,20.97
2018-08-25T11:04:08.383Z,20.56
2018-08-25T11:05:08.406Z,20.67
2018-08-25T11:06:08.419Z,20.74
2018-08-25T11:07:08.439Z,21.15
2018-08-25T11:08:08.464Z,20.84
2018-08-25T11:09:08.494Z,20.63
2018-08-25T11:10:08.501Z,20.14
2018-08-25T11:11:08.685Z,20.00
2018-08-25T11:12:08.546Z,19.74
2018-08-25T11:13:08.573Z,19.63
2018-08-25T11:14:08.592Z,19.74
2018-08-25T11:15:08.609Z,19.91
2018-08-25T11:16:08.628Z,19.95
2018-08-25T11:17:08.650Z,19.56
2018-08-25T11:18:08.674Z,19.41
2018-08-25T11:19:08.693Z,19.29
2018-08-25T11:20:08.726Z,18.89
2018-08-25T11:21:08.739Z,18.99
2018-08-25T11:22:08.759Z,19.27
2018-08-25T11:23:08.775Z,18.88
2018-08-25T11:24:08.798Z,18.75
2018-08-25T11:25:08.822Z,18.59
2018-08-25T11:26:08.836Z,18.65
2018-08-25T11:27:08.859Z,18.56
2018-08-25T11:28:08.881Z,18.23
2018-08-25T11:29:08.906Z,18.15
2018-08-25T11:30:08.919Z,18.11
2018-08-25T11:31:08.943Z,18.08
2018-08-25T11:32:08.967Z,18.01
2018-08-25T11:33:08.982Z,18.04
2018-08-25T11:34:09.002Z,17.92
2018-08-25T11:35:09.020Z,17.94
2018-08-25T11:36:09.040Z,17.85
2018-08-25T11:37:09.091Z,17.85
2018-08-25T11:38:09.168Z,17.85
2018-08-25T11:39:09.101Z,18.04
2018-08-25T11:40:09.123Z,18.43
2018-08-25T11:41:09.145Z,18.16
2018-08-25T11:42:09.160Z,18.25
2018-08-25T11:43:09.183Z,18.66
2018-08-25T11:44:09.322Z,18.44
2018-08-25T11:45:09.222Z,18.45
2018-08-25T11:46:09.245Z,18.41
2018-08-25T11:47:09.264Z,18.33
2018-08-25T11:48:09.297Z,18.34
2018-08-25T11:49:09.305Z,18.29
2018-08-25T11:50:09.324Z,17.92
2018-08-25T11:51:09.343Z,17.78
2018-08-25T11:52:09.364Z,17.80
2018-08-25T11:53:09.386Z,17.52
2018-08-25T11:54:09.459Z,17.64
2018-08-25T11:55:09.426Z,17.63
2018-08-25T11:56:09.448Z,17.68
2018-08-25T11:57:09.462Z,17.70
2018-08-25T11:58:09.481Z,17.70
2018-08-25T11:59:09.502Z,18.03
2018-08-25T12:00:09.522Z,17.87
2018-08-25T12:01:09.545Z,18.05
2018-08-25T12:02:09.605Z,18.03
2018-08-25T12:03:09.582Z,18.11
2018-08-25T12:04:09.606Z,18.31
2018-08-25T12:05:09.623Z,18.45
2018-08-25T12:06:09.642Z,18.71
2018-08-25T12:07:09.664Z,18.75
2018-08-25T12:08:09.680Z,18.65
2018-08-25T12:09:09.704Z,18.81
2018-08-25T12:10:09.724Z,19.02
2018-08-25T12:11:09.742Z,18.98
2018-08-25T12:12:09.760Z,19.14
2018-08-25T12:13:09.784Z,18.89
2018-08-25T12:14:09.804Z,19.14
2018-08-25T12:15:09.825Z,19.49
2018-08-25T12:16:09.848Z,19.49
2018-08-25T12:17:09.895Z,19.47
2018-08-25T12:18:09.884Z,19.54
2018-08-25T12:19:09.904Z,19.44
2018-08-25T12:20:09.925Z,19.16
2018-08-25T12:21:09.948Z,18.75
2018-08-25T12:22:09.964Z,18.63
2018-08-25T12:23:09.987Z,18.60
2018-08-25T12:24:10.056Z,18.59
2018-08-25T12:25:10.026Z,18.65
2018-08-25T12:26:10.046Z,18.88
2018-08-25T12:27:10.069Z,18.47
2018-08-25T12:28:10.088Z,18.34
2018-08-25T12:29:10.112Z,18.18
2018-08-25T12:30:10.128Z,18.41
2018-08-25T12:31:10.151Z,18.38
2018-08-25T12:32:10.168Z,18.40
2018-08-25T12:33:10.190Z,18.63
2018-08-25T12:34:10.208Z,18.63
2018-08-25T12:35:10.230Z,18.73
2018-08-25T12:36:10.248Z,19.07
2018-08-25T12:37:10.270Z,18.89
2018-08-25T12:38:10.290Z,18.99
2018-08-25T12:39:10.415Z,18.74
2018-08-25T12:40:10.367Z,19.09
2018-08-25T12:41:10.354Z,19.18
2018-08-25T12:42:10.370Z,19.37
2018-08-25T12:43:10.456Z,18.60
2018-08-25T12:44:10.412Z,18.77
2018-08-25T12:45:10.475Z,19.16
2018-08-25T12:46:10.451Z,19.33
2018-08-25T12:47:10.476Z,19.09
2018-08-25T12:48:10.493Z,19.16
2018-08-25T12:49:10.515Z,19.36
2018-08-25T12:50:10.536Z,19.81
2018-08-25T12:51:10.553Z,19.82
2018-08-25T12:52:10.579Z,19.56
2018-08-25T12:53:10.595Z,19.36